sensor_id;sensor_type;location;lat;lon;timestamp;P1;durP1;ratioP1;P2;durP2;ratioP2
74620;SDS011;64861;47.546;19.254;2023-05-29T00:01:26;4.85;;;2.17;;
74620;SDS011;64861;47.546;19.254;2023-05-29T00:03:52;4.00;;;1.90;;
74620;SDS011;64861;47.546;19.254;2023-05-29T00:06:20;4.82;;;2.28;;
74620;SDS011;64861;47.546;19.254;2023-05-29T00:08:45;4.07;;;1.95;;
74620;SDS011;64861;47.546;19.254;2023-05-29T00:11:11;4.68;;;2.30;;
74620;SDS011;64861;47.546;19.254;2023-05-29T00:13:37;4.55;;;2.20;;
74620;SDS011;64861;47.546;19.254;2023-05-29T00:16:03;4.53;;;1.75;;
74620;SDS011;64861;47.546;19.254;2023-05-29T00:18:29;4.05;;;2.10;;
74620;SDS011;64861;47.546;19.254;2023-05-29T00:20:55;3.95;;;2.20;;
74620;SDS011;64861;47.546;19.254;2023-05-29T00:23:21;4.72;;;2.25;;
74620;SDS011;64861;47.546;19.254;2023-05-29T00:25:47;4.68;;;2.20;;
74620;SDS011;64861;47.546;19.254;2023-05-29T00:28:12;4.85;;;2.53;;
74620;SDS011;64861;47.546;19.254;2023-05-29T00:30:38;5.72;;;2.40;;
74620;SDS011;64861;47.546;19.254;2023-05-29T00:33:04;6.25;;;2.67;;
74620;SDS011;64861;47.546;19.254;2023-05-29T00:35:30;4.95;;;2.42;;
74620;SDS011;64861;47.546;19.254;2023-05-29T00:37:55;4.85;;;2.28;;
74620;SDS011;64861;47.546;19.254;2023-05-29T00:40:21;4.60;;;2.22;;
74620;SDS011;64861;47.546;19.254;2023-05-29T00:42:46;4.50;;;2.30;;
74620;SDS011;64861;47.546;19.254;2023-05-29T00:45:12;4.22;;;2.13;;
74620;SDS011;64861;47.546;19.254;2023-05-29T00:47:38;5.55;;;2.45;;
74620;SDS011;64861;47.546;19.254;2023-05-29T00:50:05;4.13;;;2.03;;
74620;SDS011;64861;47.546;19.254;2023-05-29T00:52:31;4.28;;;2.38;;
74620;SDS011;64861;47.546;19.254;2023-05-29T00:54:57;4.65;;;2.22;;
74620;SDS011;64861;47.546;19.254;2023-05-29T00:57:26;4.78;;;2.30;;
74620;SDS011;64861;47.546;19.254;2023-05-29T00:59:52;4.93;;;2.35;;
74620;SDS011;64861;47.546;19.254;2023-05-29T01:02:17;4.80;;;2.40;;
74620;SDS011;64861;47.546;19.254;2023-05-29T01:04:45;4.57;;;2.35;;
74620;SDS011;64861;47.546;19.254;2023-05-29T01:07:10;4.32;;;2.03;;
74620;SDS011;64861;47.546;19.254;2023-05-29T01:09:36;4.40;;;2.20;;
74620;SDS011;64861;47.546;19.254;2023-05-29T01:12:11;4.15;;;2.10;;
74620;SDS011;64861;47.546;19.254;2023-05-29T01:15:21;6.15;;;2.30;;
74620;SDS011;64861;47.546;19.254;2023-05-29T01:20:42;4.35;;;2.05;;
74620;SDS011;64861;47.546;19.254;2023-05-29T01:26:20;4.28;;;1.98;;
74620;SDS011;64861;47.546;19.254;2023-05-29T01:28:52;4.13;;;2.30;;
74620;SDS011;64861;47.546;19.254;2023-05-29T01:31:20;4.13;;;2.10;;
74620;SDS011;64861;47.546;19.254;2023-05-29T01:33:56;4.00;;;2.00;;
74620;SDS011;64861;47.546;19.254;2023-05-29T01:36:23;4.45;;;2.22;;
74620;SDS011;64861;47.546;19.254;2023-05-29T01:38:50;6.05;;;2.13;;
74620;SDS011;64861;47.546;19.254;2023-05-29T01:41:17;4.75;;;2.30;;
74620;SDS011;64861;47.546;19.254;2023-05-29T01:43:44;4.55;;;2.30;;
74620;SDS011;64861;47.546;19.254;2023-05-29T01:46:14;3.67;;;2.00;;
74620;SDS011;64861;47.546;19.254;2023-05-29T01:48:41;3.63;;;1.90;;
74620;SDS011;64861;47.546;19.254;2023-05-29T01:51:07;4.57;;;2.25;;
74620;SDS011;64861;47.546;19.254;2023-05-29T01:53:36;3.40;;;2.08;;
74620;SDS011;64861;47.546;19.254;2023-05-29T01:56:03;4.55;;;2.10;;
74620;SDS011;64861;47.546;19.254;2023-05-29T01:58:30;4.53;;;2.17;;
74620;SDS011;64861;47.546;19.254;2023-05-29T02:00:56;3.78;;;1.92;;
74620;SDS011;64861;47.546;19.254;2023-05-29T02:03:22;4.07;;;1.75;;
74620;SDS011;64861;47.546;19.254;2023-05-29T02:05:48;5.25;;;2.30;;
74620;SDS011;64861;47.546;19.254;2023-05-29T02:08:14;4.85;;;2.42;;
74620;SDS011;64861;47.546;19.254;2023-05-29T02:10:40;3.88;;;2.08;;
74620;SDS011;64861;47.546;19.254;2023-05-29T02:13:05;4.22;;;2.13;;
74620;SDS011;64861;47.546;19.254;2023-05-29T02:15:31;3.67;;;1.85;;
74620;SDS011;64861;47.546;19.254;2023-05-29T02:17:56;4.53;;;2.30;;
74620;SDS011;64861;47.546;19.254;2023-05-29T02:20:23;4.63;;;2.20;;
74620;SDS011;64861;47.546;19.254;2023-05-29T02:22:49;4.22;;;2.20;;
74620;SDS011;64861;47.546;19.254;2023-05-29T02:25:15;3.75;;;1.90;;
74620;SDS011;64861;47.546;19.254;2023-05-29T02:27:40;5.32;;;2.30;;
74620;SDS011;64861;47.546;19.254;2023-05-29T02:30:06;4.63;;;2.28;;
74620;SDS011;64861;47.546;19.254;2023-05-29T02:32:33;4.28;;;2.28;;
74620;SDS011;64861;47.546;19.254;2023-05-29T02:34:58;3.70;;;1.95;;
74620;SDS011;64861;47.546;19.254;2023-05-29T02:37:24;4.22;;;2.15;;
74620;SDS011;64861;47.546;19.254;2023-05-29T02:39:50;3.92;;;2.10;;
74620;SDS011;64861;47.546;19.254;2023-05-29T02:42:16;4.60;;;2.22;;
74620;SDS011;64861;47.546;19.254;2023-05-29T02:44:41;3.83;;;2.03;;
74620;SDS011;64861;47.546;19.254;2023-05-29T02:47:07;4.50;;;2.10;;
74620;SDS011;64861;47.546;19.254;2023-05-29T02:49:32;4.03;;;1.92;;
74620;SDS011;64861;47.546;19.254;2023-05-29T02:51:57;4.40;;;2.25;;
74620;SDS011;64861;47.546;19.254;2023-05-29T02:54:23;4.82;;;2.00;;
74620;SDS011;64861;47.546;19.254;2023-05-29T02:56:50;3.33;;;1.80;;
74620;SDS011;64861;47.546;19.254;2023-05-29T02:59:16;4.20;;;2.00;;
74620;SDS011;64861;47.546;19.254;2023-05-29T03:01:41;4.28;;;2.03;;
74620;SDS011;64861;47.546;19.254;2023-05-29T03:04:08;5.45;;;2.20;;
74620;SDS011;64861;47.546;19.254;2023-05-29T03:06:34;4.03;;;2.08;;
74620;SDS011;64861;47.546;19.254;2023-05-29T03:09:01;4.20;;;2.42;;
74620;SDS011;64861;47.546;19.254;2023-05-29T03:11:28;4.50;;;2.40;;
74620;SDS011;64861;47.546;19.254;2023-05-29T03:13:54;4.55;;;2.22;;
74620;SDS011;64861;47.546;19.254;2023-05-29T03:16:20;4.85;;;2.00;;
74620;SDS011;64861;47.546;19.254;2023-05-29T03:18:46;4.70;;;2.08;;
74620;SDS011;64861;47.546;19.254;2023-05-29T03:21:11;4.72;;;2.30;;
74620;SDS011;64861;47.546;19.254;2023-05-29T03:23:37;5.60;;;2.42;;
74620;SDS011;64861;47.546;19.254;2023-05-29T03:26:02;4.40;;;2.50;;
74620;SDS011;64861;47.546;19.254;2023-05-29T03:28:29;4.57;;;2.30;;
74620;SDS011;64861;47.546;19.254;2023-05-29T03:30:54;3.80;;;2.00;;
74620;SDS011;64861;47.546;19.254;2023-05-29T03:33:20;5.68;;;2.40;;
74620;SDS011;64861;47.546;19.254;2023-05-29T03:35:45;4.30;;;2.33;;
74620;SDS011;64861;47.546;19.254;2023-05-29T03:38:11;5.28;;;2.50;;
74620;SDS011;64861;47.546;19.254;2023-05-29T03:40:36;4.45;;;2.20;;
74620;SDS011;64861;47.546;19.254;2023-05-29T03:43:02;4.57;;;2.10;;
74620;SDS011;64861;47.546;19.254;2023-05-29T03:45:27;4.70;;;2.30;;
74620;SDS011;64861;47.546;19.254;2023-05-29T03:47:53;4.40;;;2.15;;
74620;SDS011;64861;47.546;19.254;2023-05-29T03:50:18;3.70;;;1.95;;
74620;SDS011;64861;47.546;19.254;2023-05-29T03:52:43;3.90;;;2.10;;
74620;SDS011;64861;47.546;19.254;2023-05-29T03:55:09;3.35;;;1.92;;
74620;SDS011;64861;47.546;19.254;2023-05-29T03:57:39;4.32;;;2.10;;
74620;SDS011;64861;47.546;19.254;2023-05-29T04:00:07;4.57;;;2.30;;
74620;SDS011;64861;47.546;19.254;2023-05-29T04:02:35;4.13;;;2.13;;
74620;SDS011;64861;47.546;19.254;2023-05-29T04:05:02;3.78;;;2.05;;
74620;SDS011;64861;47.546;19.254;2023-05-29T04:07:28;4.18;;;2.20;;
74620;SDS011;64861;47.546;19.254;2023-05-29T04:09:54;4.72;;;2.40;;
74620;SDS011;64861;47.546;19.254;2023-05-29T04:12:19;4.00;;;2.13;;
74620;SDS011;64861;47.546;19.254;2023-05-29T04:14:45;4.65;;;2.20;;
74620;SDS011;64861;47.546;19.254;2023-05-29T04:17:10;3.88;;;2.00;;
74620;SDS011;64861;47.546;19.254;2023-05-29T04:19:36;4.18;;;2.10;;
74620;SDS011;64861;47.546;19.254;2023-05-29T04:22:01;3.70;;;2.00;;
74620;SDS011;64861;47.546;19.254;2023-05-29T04:24:27;4.63;;;2.28;;
74620;SDS011;64861;47.546;19.254;2023-05-29T04:26:52;4.90;;;2.20;;
74620;SDS011;64861;47.546;19.254;2023-05-29T04:29:18;3.95;;;1.88;;
74620;SDS011;64861;47.546;19.254;2023-05-29T04:31:44;4.10;;;2.20;;
74620;SDS011;64861;47.546;19.254;2023-05-29T04:34:10;4.03;;;2.20;;
74620;SDS011;64861;47.546;19.254;2023-05-29T04:36:35;4.65;;;2.00;;
74620;SDS011;64861;47.546;19.254;2023-05-29T04:39:04;4.80;;;2.20;;
74620;SDS011;64861;47.546;19.254;2023-05-29T04:41:30;4.78;;;2.08;;
74620;SDS011;64861;47.546;19.254;2023-05-29T04:43:56;4.18;;;2.03;;
74620;SDS011;64861;47.546;19.254;2023-05-29T04:46:22;4.13;;;2.50;;
74620;SDS011;64861;47.546;19.254;2023-05-29T04:48:49;4.35;;;2.40;;
74620;SDS011;64861;47.546;19.254;2023-05-29T04:51:18;5.07;;;2.33;;
74620;SDS011;64861;47.546;19.254;2023-05-29T04:53:46;4.15;;;2.33;;
74620;SDS011;64861;47.546;19.254;2023-05-29T04:56:13;4.32;;;2.28;;
74620;SDS011;64861;47.546;19.254;2023-05-29T04:58:38;5.28;;;2.47;;
74620;SDS011;64861;47.546;19.254;2023-05-29T05:01:05;5.15;;;2.53;;
74620;SDS011;64861;47.546;19.254;2023-05-29T05:03:33;5.05;;;2.38;;
74620;SDS011;64861;47.546;19.254;2023-05-29T05:06:02;4.15;;;2.10;;
74620;SDS011;64861;47.546;19.254;2023-05-29T05:08:28;3.80;;;2.08;;
74620;SDS011;64861;47.546;19.254;2023-05-29T05:10:54;4.53;;;2.30;;
74620;SDS011;64861;47.546;19.254;2023-05-29T05:13:20;3.75;;;2.10;;
74620;SDS011;64861;47.546;19.254;2023-05-29T05:15:46;3.95;;;2.10;;
74620;SDS011;64861;47.546;19.254;2023-05-29T05:18:12;4.65;;;2.25;;
74620;SDS011;64861;47.546;19.254;2023-05-29T05:20:37;4.85;;;2.22;;
74620;SDS011;64861;47.546;19.254;2023-05-29T05:23:02;4.80;;;2.30;;
74620;SDS011;64861;47.546;19.254;2023-05-29T05:25:28;5.30;;;2.80;;
74620;SDS011;64861;47.546;19.254;2023-05-29T05:27:53;4.13;;;2.33;;
74620;SDS011;64861;47.546;19.254;2023-05-29T05:30:19;4.03;;;2.25;;
74620;SDS011;64861;47.546;19.254;2023-05-29T05:32:45;3.72;;;1.90;;
74620;SDS011;64861;47.546;19.254;2023-05-29T05:35:10;4.10;;;1.90;;
74620;SDS011;64861;47.546;19.254;2023-05-29T05:37:36;4.43;;;2.10;;
74620;SDS011;64861;47.546;19.254;2023-05-29T05:40:02;3.90;;;2.13;;
74620;SDS011;64861;47.546;19.254;2023-05-29T05:42:31;5.72;;;2.20;;
74620;SDS011;64861;47.546;19.254;2023-05-29T05:44:57;4.30;;;2.05;;
74620;SDS011;64861;47.546;19.254;2023-05-29T05:47:22;4.68;;;2.53;;
74620;SDS011;64861;47.546;19.254;2023-05-29T05:49:47;3.88;;;2.00;;
74620;SDS011;64861;47.546;19.254;2023-05-29T05:52:14;3.92;;;1.90;;
74620;SDS011;64861;47.546;19.254;2023-05-29T05:54:41;3.63;;;2.00;;
74620;SDS011;64861;47.546;19.254;2023-05-29T05:57:07;3.60;;;2.00;;
74620;SDS011;64861;47.546;19.254;2023-05-29T05:59:32;3.85;;;1.83;;
74620;SDS011;64861;47.546;19.254;2023-05-29T06:01:58;4.07;;;1.88;;
74620;SDS011;64861;47.546;19.254;2023-05-29T06:04:23;3.75;;;1.80;;
74620;SDS011;64861;47.546;19.254;2023-05-29T06:06:48;4.30;;;1.98;;
74620;SDS011;64861;47.546;19.254;2023-05-29T06:09:14;4.50;;;2.38;;
74620;SDS011;64861;47.546;19.254;2023-05-29T06:11:39;3.85;;;2.15;;
74620;SDS011;64861;47.546;19.254;2023-05-29T06:14:05;4.00;;;2.20;;
74620;SDS011;64861;47.546;19.254;2023-05-29T06:16:31;3.40;;;2.00;;
74620;SDS011;64861;47.546;19.254;2023-05-29T06:18:56;3.90;;;2.10;;
74620;SDS011;64861;47.546;19.254;2023-05-29T06:21:22;4.45;;;2.20;;
74620;SDS011;64861;47.546;19.254;2023-05-29T06:23:48;3.40;;;1.90;;
74620;SDS011;64861;47.546;19.254;2023-05-29T06:26:13;4.20;;;2.13;;
74620;SDS011;64861;47.546;19.254;2023-05-29T06:28:40;3.47;;;1.80;;
74620;SDS011;64861;47.546;19.254;2023-05-29T06:31:06;3.65;;;2.03;;
74620;SDS011;64861;47.546;19.254;2023-05-29T06:33:31;4.47;;;2.10;;
74620;SDS011;64861;47.546;19.254;2023-05-29T06:35:57;4.07;;;2.20;;
74620;SDS011;64861;47.546;19.254;2023-05-29T06:38:23;3.97;;;2.03;;
74620;SDS011;64861;47.546;19.254;2023-05-29T06:40:48;4.72;;;2.00;;
74620;SDS011;64861;47.546;19.254;2023-05-29T06:43:13;4.47;;;2.25;;
74620;SDS011;64861;47.546;19.254;2023-05-29T06:45:39;4.22;;;2.30;;
74620;SDS011;64861;47.546;19.254;2023-05-29T06:48:05;3.67;;;1.98;;
74620;SDS011;64861;47.546;19.254;2023-05-29T06:50:31;3.97;;;2.20;;
74620;SDS011;64861;47.546;19.254;2023-05-29T06:52:57;3.28;;;1.73;;
74620;SDS011;64861;47.546;19.254;2023-05-29T06:55:22;3.63;;;1.83;;
74620;SDS011;64861;47.546;19.254;2023-05-29T06:57:48;3.67;;;1.88;;
74620;SDS011;64861;47.546;19.254;2023-05-29T07:00:13;4.95;;;2.20;;
74620;SDS011;64861;47.546;19.254;2023-05-29T07:02:39;3.75;;;2.00;;
74620;SDS011;64861;47.546;19.254;2023-05-29T07:05:05;4.70;;;2.05;;
74620;SDS011;64861;47.546;19.254;2023-05-29T07:07:31;4.18;;;1.95;;
74620;SDS011;64861;47.546;19.254;2023-05-29T07:09:56;4.97;;;1.90;;
74620;SDS011;64861;47.546;19.254;2023-05-29T07:12:22;3.25;;;1.70;;
74620;SDS011;64861;47.546;19.254;2023-05-29T07:14:50;4.72;;;2.08;;
74620;SDS011;64861;47.546;19.254;2023-05-29T07:17:16;4.57;;;2.10;;
74620;SDS011;64861;47.546;19.254;2023-05-29T07:19:41;4.05;;;2.03;;
74620;SDS011;64861;47.546;19.254;2023-05-29T07:22:07;4.68;;;2.03;;
74620;SDS011;64861;47.546;19.254;2023-05-29T07:24:32;3.58;;;1.85;;
74620;SDS011;64861;47.546;19.254;2023-05-29T07:26:58;4.40;;;1.83;;
74620;SDS011;64861;47.546;19.254;2023-05-29T07:29:24;4.78;;;1.80;;
74620;SDS011;64861;47.546;19.254;2023-05-29T07:31:50;4.03;;;1.73;;
74620;SDS011;64861;47.546;19.254;2023-05-29T07:34:16;3.25;;;1.80;;
74620;SDS011;64861;47.546;19.254;2023-05-29T07:36:58;4.65;;;2.00;;
74620;SDS011;64861;47.546;19.254;2023-05-29T07:39:26;3.85;;;2.00;;
74620;SDS011;64861;47.546;19.254;2023-05-29T07:41:52;3.58;;;1.88;;
74620;SDS011;64861;47.546;19.254;2023-05-29T07:44:18;3.45;;;1.80;;
74620;SDS011;64861;47.546;19.254;2023-05-29T07:46:43;4.05;;;1.95;;
74620;SDS011;64861;47.546;19.254;2023-05-29T07:49:11;4.03;;;1.90;;
74620;SDS011;64861;47.546;19.254;2023-05-29T07:51:37;4.05;;;1.90;;
74620;SDS011;64861;47.546;19.254;2023-05-29T07:54:02;3.67;;;1.80;;
74620;SDS011;64861;47.546;19.254;2023-05-29T07:56:28;3.20;;;1.50;;
74620;SDS011;64861;47.546;19.254;2023-05-29T07:58:54;4.50;;;2.10;;
74620;SDS011;64861;47.546;19.254;2023-05-29T08:01:21;3.95;;;2.10;;
74620;SDS011;64861;47.546;19.254;2023-05-29T08:03:47;4.05;;;1.90;;
74620;SDS011;64861;47.546;19.254;2023-05-29T08:06:12;3.60;;;1.85;;
74620;SDS011;64861;47.546;19.254;2023-05-29T08:08:38;4.90;;;2.00;;
74620;SDS011;64861;47.546;19.254;2023-05-29T08:11:04;3.75;;;1.90;;
74620;SDS011;64861;47.546;19.254;2023-05-29T08:13:30;5.28;;;1.83;;
74620;SDS011;64861;47.546;19.254;2023-05-29T08:15:55;3.47;;;1.50;;
74620;SDS011;64861;47.546;19.254;2023-05-29T08:18:21;2.90;;;1.60;;
74620;SDS011;64861;47.546;19.254;2023-05-29T08:20:50;3.33;;;1.73;;
74620;SDS011;64861;47.546;19.254;2023-05-29T08:23:15;4.82;;;2.00;;
74620;SDS011;64861;47.546;19.254;2023-05-29T08:25:41;3.70;;;1.92;;
74620;SDS011;64861;47.546;19.254;2023-05-29T08:28:06;4.43;;;2.03;;
74620;SDS011;64861;47.546;19.254;2023-05-29T08:30:31;3.92;;;2.05;;
74620;SDS011;64861;47.546;19.254;2023-05-29T08:32:57;4.28;;;1.88;;
74620;SDS011;64861;47.546;19.254;2023-05-29T08:35:22;2.90;;;1.70;;
74620;SDS011;64861;47.546;19.254;2023-05-29T08:37:48;4.07;;;1.90;;
74620;SDS011;64861;47.546;19.254;2023-05-29T08:40:13;3.70;;;1.73;;
74620;SDS011;64861;47.546;19.254;2023-05-29T08:42:47;2.83;;;1.65;;
74620;SDS011;64861;47.546;19.254;2023-05-29T08:45:18;3.40;;;1.85;;
74620;SDS011;64861;47.546;19.254;2023-05-29T08:47:46;3.30;;;1.67;;
74620;SDS011;64861;47.546;19.254;2023-05-29T08:50:16;3.95;;;1.90;;
74620;SDS011;64861;47.546;19.254;2023-05-29T08:52:44;3.08;;;1.70;;
74620;SDS011;64861;47.546;19.254;2023-05-29T08:55:10;2.95;;;1.73;;
74620;SDS011;64861;47.546;19.254;2023-05-29T08:57:36;2.92;;;1.63;;
74620;SDS011;64861;47.546;19.254;2023-05-29T09:00:02;3.47;;;1.80;;
74620;SDS011;64861;47.546;19.254;2023-05-29T09:02:46;3.92;;;1.85;;
74620;SDS011;64861;47.546;19.254;2023-05-29T09:05:12;3.70;;;1.70;;
74620;SDS011;64861;47.546;19.254;2023-05-29T09:07:38;3.10;;;1.70;;
74620;SDS011;64861;47.546;19.254;2023-05-29T09:10:05;3.28;;;1.70;;
74620;SDS011;64861;47.546;19.254;2023-05-29T09:12:31;3.63;;;1.90;;
74620;SDS011;64861;47.546;19.254;2023-05-29T09:14:58;3.95;;;1.80;;
74620;SDS011;64861;47.546;19.254;2023-05-29T09:17:23;4.03;;;1.80;;
74620;SDS011;64861;47.546;19.254;2023-05-29T09:19:49;3.50;;;1.65;;
74620;SDS011;64861;47.546;19.254;2023-05-29T09:22:15;3.22;;;1.75;;
74620;SDS011;64861;47.546;19.254;2023-05-29T09:24:42;3.20;;;1.40;;
74620;SDS011;64861;47.546;19.254;2023-05-29T09:27:10;3.30;;;1.60;;
74620;SDS011;64861;47.546;19.254;2023-05-29T09:29:40;3.30;;;1.63;;
74620;SDS011;64861;47.546;19.254;2023-05-29T09:32:11;3.22;;;1.85;;
74620;SDS011;64861;47.546;19.254;2023-05-29T09:34:37;3.03;;;1.60;;
74620;SDS011;64861;47.546;19.254;2023-05-29T09:37:07;3.50;;;1.83;;
74620;SDS011;64861;47.546;19.254;2023-05-29T09:39:52;3.40;;;1.63;;
74620;SDS011;64861;47.546;19.254;2023-05-29T09:42:18;2.80;;;1.50;;
74620;SDS011;64861;47.546;19.254;2023-05-29T09:44:44;3.53;;;1.50;;
74620;SDS011;64861;47.546;19.254;2023-05-29T09:47:16;4.13;;;2.00;;
74620;SDS011;64861;47.546;19.254;2023-05-29T09:49:42;3.10;;;1.60;;
74620;SDS011;64861;47.546;19.254;2023-05-29T09:52:12;3.45;;;1.70;;
74620;SDS011;64861;47.546;19.254;2023-05-29T09:54:39;3.47;;;1.75;;
74620;SDS011;64861;47.546;19.254;2023-05-29T09:57:07;3.58;;;1.58;;
74620;SDS011;64861;47.546;19.254;2023-05-29T09:59:33;3.38;;;1.70;;
74620;SDS011;64861;47.546;19.254;2023-05-29T10:02:01;2.88;;;1.60;;
74620;SDS011;64861;47.546;19.254;2023-05-29T10:04:29;3.55;;;1.73;;
74620;SDS011;64861;47.546;19.254;2023-05-29T10:07:00;3.00;;;1.70;;
74620;SDS011;64861;47.546;19.254;2023-05-29T10:09:34;3.25;;;1.45;;
74620;SDS011;64861;47.546;19.254;2023-05-29T10:12:15;4.10;;;2.10;;
74620;SDS011;64861;47.546;19.254;2023-05-29T10:14:49;3.63;;;1.85;;
74620;SDS011;64861;47.546;19.254;2023-05-29T10:17:15;3.25;;;1.65;;
74620;SDS011;64861;47.546;19.254;2023-05-29T10:19:43;4.90;;;1.77;;
74620;SDS011;64861;47.546;19.254;2023-05-29T10:22:12;4.07;;;1.88;;
74620;SDS011;64861;47.546;19.254;2023-05-29T10:24:38;4.57;;;2.20;;
74620;SDS011;64861;47.546;19.254;2023-05-29T10:27:05;2.97;;;1.55;;
74620;SDS011;64861;47.546;19.254;2023-05-29T10:29:37;3.45;;;1.88;;
74620;SDS011;64861;47.546;19.254;2023-05-29T10:32:12;3.92;;;1.80;;
74620;SDS011;64861;47.546;19.254;2023-05-29T10:34:50;3.75;;;1.85;;
74620;SDS011;64861;47.546;19.254;2023-05-29T10:40:12;3.97;;;1.75;;
74620;SDS011;64861;47.546;19.254;2023-05-29T10:42:47;4.95;;;2.00;;
74620;SDS011;64861;47.546;19.254;2023-05-29T10:46:00;4.13;;;1.92;;
74620;SDS011;64861;47.546;19.254;2023-05-29T10:53:06;3.78;;;1.60;;
74620;SDS011;64861;47.546;19.254;2023-05-29T10:55:35;3.45;;;1.75;;
74620;SDS011;64861;47.546;19.254;2023-05-29T10:58:07;3.05;;;1.48;;
74620;SDS011;64861;47.546;19.254;2023-05-29T11:00:42;4.82;;;2.08;;
74620;SDS011;64861;47.546;19.254;2023-05-29T11:03:08;3.58;;;1.80;;
74620;SDS011;64861;47.546;19.254;2023-05-29T11:05:40;3.97;;;1.90;;
74620;SDS011;64861;47.546;19.254;2023-05-29T11:13:52;5.15;;;1.80;;
74620;SDS011;64861;47.546;19.254;2023-05-29T11:19:13;3.17;;;1.60;;
74620;SDS011;64861;47.546;19.254;2023-05-29T11:24:24;3.70;;;1.90;;
74620;SDS011;64861;47.546;19.254;2023-05-29T11:26:51;2.80;;;1.42;;
74620;SDS011;64861;47.546;19.254;2023-05-29T11:29:21;3.85;;;2.00;;
74620;SDS011;64861;47.546;19.254;2023-05-29T11:31:48;3.67;;;1.73;;
74620;SDS011;64861;47.546;19.254;2023-05-29T11:34:18;3.88;;;2.10;;
74620;SDS011;64861;47.546;19.254;2023-05-29T11:36:46;3.72;;;1.83;;
74620;SDS011;64861;47.546;19.254;2023-05-29T11:39:13;3.28;;;1.60;;
74620;SDS011;64861;47.546;19.254;2023-05-29T11:41:39;3.67;;;1.65;;
74620;SDS011;64861;47.546;19.254;2023-05-29T11:44:05;3.67;;;2.00;;
74620;SDS011;64861;47.546;19.254;2023-05-29T11:46:33;3.42;;;1.70;;
74620;SDS011;64861;47.546;19.254;2023-05-29T11:48:59;3.95;;;1.70;;
74620;SDS011;64861;47.546;19.254;2023-05-29T11:51:26;4.30;;;1.98;;
74620;SDS011;64861;47.546;19.254;2023-05-29T11:53:52;3.30;;;1.73;;
74620;SDS011;64861;47.546;19.254;2023-05-29T11:56:27;3.67;;;1.83;;
74620;SDS011;64861;47.546;19.254;2023-05-29T11:58:54;5.80;;;2.10;;
74620;SDS011;64861;47.546;19.254;2023-05-29T12:01:25;3.35;;;1.67;;
74620;SDS011;64861;47.546;19.254;2023-05-29T12:03:51;2.80;;;1.60;;
74620;SDS011;64861;47.546;19.254;2023-05-29T12:06:33;3.40;;;1.73;;
74620;SDS011;64861;47.546;19.254;2023-05-29T12:09:00;3.63;;;1.88;;
74620;SDS011;64861;47.546;19.254;2023-05-29T12:11:27;4.20;;;1.67;;
74620;SDS011;64861;47.546;19.254;2023-05-29T12:14:00;3.67;;;1.90;;
74620;SDS011;64861;47.546;19.254;2023-05-29T12:16:30;4.00;;;1.90;;
74620;SDS011;64861;47.546;19.254;2023-05-29T12:18:58;2.75;;;1.27;;
74620;SDS011;64861;47.546;19.254;2023-05-29T12:21:23;3.60;;;1.67;;
74620;SDS011;64861;47.546;19.254;2023-05-29T12:23:52;3.30;;;1.75;;
74620;SDS011;64861;47.546;19.254;2023-05-29T12:26:21;2.95;;;1.58;;
74620;SDS011;64861;47.546;19.254;2023-05-29T12:28:48;3.78;;;1.73;;
74620;SDS011;64861;47.546;19.254;2023-05-29T12:31:26;7.57;;;1.67;;
74620;SDS011;64861;47.546;19.254;2023-05-29T12:33:58;3.83;;;2.00;;
74620;SDS011;64861;47.546;19.254;2023-05-29T12:36:26;3.40;;;1.60;;
74620;SDS011;64861;47.546;19.254;2023-05-29T12:38:52;3.72;;;1.70;;
74620;SDS011;64861;47.546;19.254;2023-05-29T12:41:36;3.20;;;1.55;;
74620;SDS011;64861;47.546;19.254;2023-05-29T12:44:03;2.95;;;1.42;;
74620;SDS011;64861;47.546;19.254;2023-05-29T12:46:39;3.17;;;1.55;;
74620;SDS011;64861;47.546;19.254;2023-05-29T12:49:18;3.33;;;1.58;;
74620;SDS011;64861;47.546;19.254;2023-05-29T12:51:45;3.53;;;1.75;;
74620;SDS011;64861;47.546;19.254;2023-05-29T12:54:11;2.90;;;1.35;;
74620;SDS011;64861;47.546;19.254;2023-05-29T12:56:39;3.45;;;1.50;;
74620;SDS011;64861;47.546;19.254;2023-05-29T12:59:08;3.70;;;1.73;;
74620;SDS011;64861;47.546;19.254;2023-05-29T13:01:35;3.53;;;1.60;;
74620;SDS011;64861;47.546;19.254;2023-05-29T13:04:03;4.90;;;1.55;;
74620;SDS011;64861;47.546;19.254;2023-05-29T13:06:31;2.47;;;1.30;;
74620;SDS011;64861;47.546;19.254;2023-05-29T13:08:57;3.50;;;1.70;;
74620;SDS011;64861;47.546;19.254;2023-05-29T13:11:23;3.13;;;1.50;;
74620;SDS011;64861;47.546;19.254;2023-05-29T13:13:50;3.85;;;1.67;;
74620;SDS011;64861;47.546;19.254;2023-05-29T13:16:15;3.30;;;1.58;;
74620;SDS011;64861;47.546;19.254;2023-05-29T13:18:42;2.78;;;1.50;;
74620;SDS011;64861;47.546;19.254;2023-05-29T13:21:08;3.80;;;1.42;;
74620;SDS011;64861;47.546;19.254;2023-05-29T13:23:33;3.25;;;1.60;;
74620;SDS011;64861;47.546;19.254;2023-05-29T13:25:59;2.83;;;1.58;;
74620;SDS011;64861;47.546;19.254;2023-05-29T13:28:24;2.70;;;1.50;;
74620;SDS011;64861;47.546;19.254;2023-05-29T13:30:50;4.18;;;1.40;;
74620;SDS011;64861;47.546;19.254;2023-05-29T13:33:15;3.35;;;1.45;;
74620;SDS011;64861;47.546;19.254;2023-05-29T13:35:41;2.50;;;1.42;;
74620;SDS011;64861;47.546;19.254;2023-05-29T13:38:06;5.25;;;1.70;;
74620;SDS011;64861;47.546;19.254;2023-05-29T13:40:31;3.80;;;1.40;;
74620;SDS011;64861;47.546;19.254;2023-05-29T13:42:57;6.28;;;1.50;;
74620;SDS011;64861;47.546;19.254;2023-05-29T13:45:22;6.22;;;1.90;;
74620;SDS011;64861;47.546;19.254;2023-05-29T13:47:48;3.13;;;1.27;;
74620;SDS011;64861;47.546;19.254;2023-05-29T13:50:13;5.47;;;1.60;;
74620;SDS011;64861;47.546;19.254;2023-05-29T13:52:39;4.05;;;1.70;;
74620;SDS011;64861;47.546;19.254;2023-05-29T13:55:04;4.32;;;1.88;;
74620;SDS011;64861;47.546;19.254;2023-05-29T13:57:33;5.20;;;1.60;;
74620;SDS011;64861;47.546;19.254;2023-05-29T14:00:00;8.13;;;1.85;;
74620;SDS011;64861;47.546;19.254;2023-05-29T14:02:25;4.88;;;1.90;;
74620;SDS011;64861;47.546;19.254;2023-05-29T14:04:51;6.03;;;2.17;;
74620;SDS011;64861;47.546;19.254;2023-05-29T14:07:17;6.65;;;2.13;;
74620;SDS011;64861;47.546;19.254;2023-05-29T14:09:43;6.50;;;1.70;;
74620;SDS011;64861;47.546;19.254;2023-05-29T14:12:08;5.03;;;1.70;;
74620;SDS011;64861;47.546;19.254;2023-05-29T14:14:34;5.13;;;1.55;;
74620;SDS011;64861;47.546;19.254;2023-05-29T14:17:00;9.95;;;1.70;;
74620;SDS011;64861;47.546;19.254;2023-05-29T14:19:25;6.00;;;1.80;;
74620;SDS011;64861;47.546;19.254;2023-05-29T14:21:51;6.88;;;1.65;;
74620;SDS011;64861;47.546;19.254;2023-05-29T14:24:17;5.80;;;2.00;;
74620;SDS011;64861;47.546;19.254;2023-05-29T14:26:44;8.38;;;2.25;;
74620;SDS011;64861;47.546;19.254;2023-05-29T14:29:12;6.38;;;1.98;;
74620;SDS011;64861;47.546;19.254;2023-05-29T14:31:38;5.95;;;1.70;;
74620;SDS011;64861;47.546;19.254;2023-05-29T14:34:04;9.75;;;2.10;;
74620;SDS011;64861;47.546;19.254;2023-05-29T14:36:29;7.80;;;2.40;;
74620;SDS011;64861;47.546;19.254;2023-05-29T14:38:55;6.25;;;2.55;;
74620;SDS011;64861;47.546;19.254;2023-05-29T14:41:20;7.07;;;2.75;;
74620;SDS011;64861;47.546;19.254;2023-05-29T14:43:46;8.88;;;2.92;;
74620;SDS011;64861;47.546;19.254;2023-05-29T14:51:21;10.38;;;3.50;;
74620;SDS011;64861;47.546;19.254;2023-05-29T14:53:49;12.23;;;3.33;;
74620;SDS011;64861;47.546;19.254;2023-05-29T14:56:14;8.57;;;3.35;;
74620;SDS011;64861;47.546;19.254;2023-05-29T15:03:50;9.80;;;4.13;;
74620;SDS011;64861;47.546;19.254;2023-05-29T15:24:22;11.18;;;5.90;;
74620;SDS011;64861;47.546;19.254;2023-05-29T15:34:33;13.45;;;5.40;;